Time;durP1;ratioP1;P1;durP2;ratioP2;P2;SDS_P1;SDS_P2;PMS_P1;PMS_P2;Temp;Humidity;BMP_temperature;BMP_pressure;BME280_temperature;BME280_humidity;BME280_pressure;Samples;Min_cycle;Max_cycle;Signal;HPM_P1;HPM_P2
2022/05/09 00:00:32;;;;;;;13.55;12.35;;;;;;;9.52;92.66406;95965.54;;;;
2022/05/09 00:01:33;;;;;;;13.55;12.35;;;;;;;9.52;92.66406;95965.54;;;;
2022/05/09 00:02:33;;;;;;;13.55;12.35;;;;;;;9.52;92.66406;95965.54;;;;
2022/05/09 00:03:34;;;;;;;13.55;12.35;;;;;;;9.52;92.66406;95965.54;;;;
2022/05/09 00:04:35;;;;;;;13.55;12.35;;;;;;;9.52;92.66406;95965.54;;;;
2022/05/09 00:05:35;;;;;;;13.55;12.35;;;;;;;9.52;92.66406;95965.54;;;;
2022/05/09 00:06:36;;;;;;;13.55;12.35;;;;;;;9.52;92.66406;95965.54;;;;
2022/05/09 00:07:37;;;;;;;13.35;12.15;;;;;;;9.38;92.74316;95954.06;;;;
2022/05/09 00:08:37;;;;;;;13.35;12.15;;;;;;;9.38;92.74316;95954.06;;;;
2022/05/09 00:09:38;;;;;;;13.35;12.15;;;;;;;9.38;92.74316;95954.06;;;;
2022/05/09 00:10:38;;;;;;;13.35;12.15;;;;;;;9.38;92.74316;95954.06;;;;
2022/05/09 00:11:39;;;;;;;13.35;12.15;;;;;;;9.38;92.74316;95954.06;;;;
2022/05/09 00:12:40;;;;;;;13.35;12.15;;;;;;;9.38;92.74316;95954.06;;;;
2022/05/09 00:13:40;;;;;;;13.35;12.15;;;;;;;9.38;92.74316;95954.06;;;;
2022/05/09 00:14:42;;;;;;;13.35;12.15;;;;;;;9.38;92.74316;95954.06;;;;
2022/05/09 00:15:43;;;;;;;13.35;12.15;;;;;;;9.38;92.74316;95954.06;;;;
2022/05/09 00:16:43;;;;;;;13.35;12.15;;;;;;;9.38;92.74316;95954.06;;;;
2022/05/09 00:17:45;;;;;;;13.7;12.4;;;;;;;9.32;92.80371;95957.05;;;;
2022/05/09 00:18:46;;;;;;;13.7;12.4;;;;;;;9.32;92.80371;95957.05;;;;
2022/05/09 00:19:47;;;;;;;13.7;12.4;;;;;;;9.32;92.80371;95957.05;;;;
2022/05/09 00:20:47;;;;;;;13.7;12.4;;;;;;;9.32;92.80371;95957.05;;;;
2022/05/09 00:21:48;;;;;;;13.7;12.4;;;;;;;9.32;92.80371;95957.05;;;;
2022/05/09 00:22:51;;;;;;;13.7;12.4;;;;;;;9.32;92.80371;95957.05;;;;
2022/05/09 00:23:54;;;;;;;13.7;12.4;;;;;;;9.32;92.80371;95957.05;;;;
2022/05/09 00:24:54;;;;;;;13.7;12.4;;;;;;;9.32;92.80371;95957.05;;;;
2022/05/09 00:26:00;;;;;;;13.7;12.4;;;;;;;9.32;92.80371;95957.05;;;;
2022/05/09 00:27:01;;;;;;;13.7;12.4;;;;;;;9.32;92.80371;95957.05;;;;
2022/05/09 00:28:03;;;;;;;13.7;12.4;;;;;;;9.32;92.80371;95957.05;;;;
2022/05/09 00:29:03;;;;;;;12.5;11.4;;;;;;;9.26;92.70508;95948.13;;;;
2022/05/09 00:30:04;;;;;;;12.5;11.4;;;;;;;9.26;92.70508;95948.13;;;;
2022/05/09 00:31:06;;;;;;;12.5;11.4;;;;;;;9.26;92.70508;95948.13;;;;
2022/05/09 00:32:07;;;;;;;12.5;11.4;;;;;;;9.26;92.70508;95948.13;;;;
2022/05/09 00:33:08;;;;;;;12.5;11.4;;;;;;;9.26;92.70508;95948.13;;;;
2022/05/09 00:34:10;;;;;;;12.5;11.4;;;;;;;9.26;92.70508;95948.13;;;;
2022/05/09 00:35:11;;;;;;;12.5;11.4;;;;;;;9.26;92.70508;95948.13;;;;
2022/05/09 00:36:16;;;;;;;12.5;11.4;;;;;;;9.26;92.70508;95948.13;;;;
2022/05/09 00:37:16;;;;;;;12.5;11.4;;;;;;;9.26;92.70508;95948.13;;;;
2022/05/09 00:38:17;;;;;;;12.5;11.4;;;;;;;9.26;92.70508;95948.13;;;;
2022/05/09 00:39:18;;;;;;;12.8;11.6;;;;;;;9.17;92.74902;95959.8;;;;
2022/05/09 00:40:19;;;;;;;12.8;11.6;;;;;;;9.17;92.74902;95959.8;;;;
2022/05/09 00:41:37;;;;;;;12.8;11.6;;;;;;;9.17;92.74902;95959.8;;;;
2022/05/09 00:42:40;;;;;;;12.8;11.6;;;;;;;9.17;92.74902;95959.8;;;;
2022/05/09 00:43:45;;;;;;;12.8;11.6;;;;;;;9.17;92.74902;95959.8;;;;
2022/05/09 00:44:45;;;;;;;12.8;11.6;;;;;;;9.17;92.74902;95959.8;;;;
2022/05/09 00:45:46;;;;;;;12.8;11.6;;;;;;;9.17;92.74902;95959.8;;;;
2022/05/09 00:46:46;;;;;;;12.8;11.6;;;;;;;9.17;92.74902;95959.8;;;;
2022/05/09 00:47:52;;;;;;;12.8;11.6;;;;;;;9.17;92.74902;95959.8;;;;
2022/05/09 00:48:52;;;;;;;12.8;11.6;;;;;;;9.17;92.74902;95959.8;;;;
2022/05/09 00:49:54;;;;;;;13.55;12.35;;;;;;;9.13;93.04199;95961.5;;;;
2022/05/09 00:50:58;;;;;;;13.55;12.35;;;;;;;9.13;93.04199;95961.5;;;;
2022/05/09 00:52:01;;;;;;;13.55;12.35;;;;;;;9.13;93.04199;95961.5;;;;
2022/05/09 00:53:07;;;;;;;13.55;12.35;;;;;;;9.13;93.04199;95961.5;;;;
2022/05/09 00:54:08;;;;;;;13.55;12.35;;;;;;;9.13;93.04199;95961.5;;;;
2022/05/09 00:55:09;;;;;;;13.55;12.35;;;;;;;9.13;93.04199;95961.5;;;;
2022/05/09 00:56:15;;;;;;;13.55;12.35;;;;;;;9.13;93.04199;95961.5;;;;
2022/05/09 00:57:22;;;;;;;13.55;12.35;;;;;;;9.13;93.04199;95961.5;;;;
2022/05/09 00:58:27;;;;;;;13.55;12.35;;;;;;;9.13;93.04199;95961.5;;;;
2022/05/09 00:59:33;;;;;;;13.55;12.35;;;;;;;9.13;93.04199;95961.5;;;;
2022/05/09 01:00:38;;;;;;;14;12.8;;;;;;;9.28;93.43457;95954.46;;;;
2022/05/09 01:01:39;;;;;;;14;12.8;;;;;;;9.28;93.43457;95954.46;;;;
2022/05/09 01:02:41;;;;;;;14;12.8;;;;;;;9.28;93.43457;95954.46;;;;
2022/05/09 01:03:45;;;;;;;14;12.8;;;;;;;9.28;93.43457;95954.46;;;;
2022/05/09 01:04:49;;;;;;;14;12.8;;;;;;;9.28;93.43457;95954.46;;;;
2022/05/09 01:05:53;;;;;;;14;12.8;;;;;;;9.28;93.43457;95954.46;;;;
2022/05/09 01:06:53;;;;;;;14;12.8;;;;;;;9.28;93.43457;95954.46;;;;
2022/05/09 01:07:54;;;;;;;14;12.8;;;;;;;9.28;93.43457;95954.46;;;;
2022/05/09 01:08:58;;;;;;;14;12.8;;;;;;;9.28;93.43457;95954.46;;;;
2022/05/09 01:09:58;;;;;;;14;12.8;;;;;;;9.28;93.43457;95954.46;;;;
2022/05/09 01:10:59;;;;;;;14;12.8;;;;;;;9.28;93.43457;95954.46;;;;
2022/05/09 01:12:02;;;;;;;12.85;11.85;;;;;;;9.55;93.78027;95959.91;;;;
2022/05/09 01:13:04;;;;;;;12.85;11.85;;;;;;;9.55;93.78027;95959.91;;;;
2022/05/09 01:14:08;;;;;;;12.85;11.85;;;;;;;9.55;93.78027;95959.91;;;;
2022/05/09 01:15:14;;;;;;;12.85;11.85;;;;;;;9.55;93.78027;95959.91;;;;
2022/05/09 01:16:16;;;;;;;12.85;11.85;;;;;;;9.55;93.78027;95959.91;;;;
2022/05/09 01:17:19;;;;;;;12.85;11.85;;;;;;;9.55;93.78027;95959.91;;;;
2022/05/09 01:18:22;;;;;;;12.85;11.85;;;;;;;9.55;93.78027;95959.91;;;;
2022/05/09 01:19:22;;;;;;;12.85;11.85;;;;;;;9.55;93.78027;95959.91;;;;
2022/05/09 01:20:28;;;;;;;12.85;11.85;;;;;;;9.55;93.78027;95959.91;;;;
2022/05/09 01:21:29;;;;;;;12.85;11.85;;;;;;;9.55;93.78027;95959.91;;;;
2022/05/09 01:22:34;;;;;;;10.85;9.950001;;;;;;;9.75;93.85645;95949.01;;;;
2022/05/09 01:23:37;;;;;;;10.85;9.950001;;;;;;;9.75;93.85645;95949.01;;;;
2022/05/09 01:24:37;;;;;;;10.85;9.950001;;;;;;;9.75;93.85645;95949.01;;;;
2022/05/09 01:25:38;;;;;;;10.85;9.950001;;;;;;;9.75;93.85645;95949.01;;;;
2022/05/09 01:26:39;;;;;;;10.85;9.950001;;;;;;;9.75;93.85645;95949.01;;;;
2022/05/09 01:27:40;;;;;;;10.85;9.950001;;;;;;;9.75;93.85645;95949.01;;;;
2022/05/09 01:28:42;;;;;;;10.85;9.950001;;;;;;;9.75;93.85645;95949.01;;;;
2022/05/09 01:29:43;;;;;;;10.85;9.950001;;;;;;;9.75;93.85645;95949.01;;;;
2022/05/09 01:30:51;;;;;;;10.85;9.950001;;;;;;;9.75;93.85645;95949.01;;;;
2022/05/09 01:31:54;;;;;;;10.85;9.950001;;;;;;;9.75;93.85645;95949.01;;;;
2022/05/09 01:32:56;;;;;;;10.95;10;;;;;;;9.81;93.86035;95949.48;;;;
2022/05/09 01:34:02;;;;;;;10.95;10;;;;;;;9.81;93.86035;95949.48;;;;
2022/05/09 01:35:03;;;;;;;10.95;10;;;;;;;9.81;93.86035;95949.48;;;;
2022/05/09 01:36:10;;;;;;;10.95;10;;;;;;;9.81;93.86035;95949.48;;;;
2022/05/09 01:37:14;;;;;;;10.95;10;;;;;;;9.81;93.86035;95949.48;;;;
2022/05/09 01:38:18;;;;;;;10.95;10;;;;;;;9.81;93.86035;95949.48;;;;
2022/05/09 01:39:25;;;;;;;10.95;10;;;;;;;9.81;93.86035;95949.48;;;;
2022/05/09 01:40:26;;;;;;;10.95;10;;;;;;;9.81;93.86035;95949.48;;;;
2022/05/09 01:41:27;;;;;;;10.95;10;;;;;;;9.81;93.86035;95949.48;;;;
2022/05/09 01:42:35;;;;;;;10.95;10;;;;;;;9.81;93.86035;95949.48;;;;
2022/05/09 01:43:36;;;;;;;10.8;9.900001;;;;;;;9.81;93.8584;95950.38;;;;
2022/05/09 01:44:39;;;;;;;10.8;9.900001;;;;;;;9.81;93.8584;95950.38;;;;
2022/05/09 01:45:39;;;;;;;10.8;9.900001;;;;;;;9.81;93.8584;95950.38;;;;
2022/05/09 01:49:29;;;;;;;10.8;9.900001;;;;;;;9.81;93.8584;95950.38;;;;
2022/05/09 01:50:30;;;;;;;10.8;9.900001;;;;;;;9.81;93.8584;95950.38;;;;
2022/05/09 01:51:31;;;;;;;10.8;9.900001;;;;;;;9.81;93.8584;95950.38;;;;
2022/05/09 01:52:32;;;;;;;10.8;9.900001;;;;;;;9.81;93.8584;95950.38;;;;
2022/05/09 01:53:33;;;;;;;10.8;9.900001;;;;;;;9.81;93.8584;95950.38;;;;
2022/05/09 01:54:33;;;;;;;11.05;10.15;;;;;;;9.65;93.62109;95948.51;;;;
2022/05/09 01:55:36;;;;;;;11.05;10.15;;;;;;;9.65;93.62109;95948.51;;;;
2022/05/09 01:56:36;;;;;;;11.05;10.15;;;;;;;9.65;93.62109;95948.51;;;;
2022/05/09 01:57:40;;;;;;;11.05;10.15;;;;;;;9.65;93.62109;95948.51;;;;
2022/05/09 01:58:40;;;;;;;11.05;10.15;;;;;;;9.65;93.62109;95948.51;;;;
2022/05/09 01:59:41;;;;;;;11.05;10.15;;;;;;;9.65;93.62109;95948.51;;;;
2022/05/09 02:00:44;;;;;;;11.05;10.15;;;;;;;9.65;93.62109;95948.51;;;;
2022/05/09 02:01:45;;;;;;;11.05;10.15;;;;;;;9.65;93.62109;95948.51;;;;
2022/05/09 02:02:49;;;;;;;11.05;10.15;;;;;;;9.65;93.62109;95948.51;;;;
2022/05/09 02:03:49;;;;;;;11.05;10.15;;;;;;;9.65;93.62109;95948.51;;;;
2022/05/09 02:04:50;;;;;;;10.85;9.950001;;;;;;;9.48;93.41406;95958.53;;;;
2022/05/09 02:05:50;;;;;;;10.85;9.950001;;;;;;;9.48;93.41406;95958.53;;;;
2022/05/09 02:06:51;;;;;;;10.85;9.950001;;;;;;;9.48;93.41406;95958.53;;;;
2022/05/09 02:07:52;;;;;;;10.85;9.950001;;;;;;;9.48;93.41406;95958.53;;;;
2022/05/09 02:08:52;;;;;;;10.85;9.950001;;;;;;;9.48;93.41406;95958.53;;;;
2022/05/09 02:09:53;;;;;;;10.85;9.950001;;;;;;;9.48;93.41406;95958.53;;;;
2022/05/09 02:10:53;;;;;;;10.85;9.950001;;;;;;;9.48;93.41406;95958.53;;;;
2022/05/09 02:11:53;;;;;;;10.85;9.950001;;;;;;;9.48;93.41406;95958.53;;;;
2022/05/09 02:12:54;;;;;;;10.85;9.950001;;;;;;;9.48;93.41406;95958.53;;;;
2022/05/09 02:13:55;;;;;;;10.85;9.950001;;;;;;;9.48;93.41406;95958.53;;;;
2022/05/09 02:14:55;;;;;;;10.85;9.950001;;;;;;;9.48;93.41406;95958.53;;;;
2022/05/09 02:15:56;;;;;;;11.25;10.35;;;;;;;9.42;93.48535;95956.2;;;;
2022/05/09 02:16:57;;;;;;;11.25;10.35;;;;;;;9.42;93.48535;95956.2;;;;
2022/05/09 02:17:57;;;;;;;11.25;10.35;;;;;;;9.42;93.48535;95956.2;;;;
2022/05/09 02:18:58;;;;;;;11.25;10.35;;;;;;;9.42;93.48535;95956.2;;;;
2022/05/09 02:19:59;;;;;;;11.25;10.35;;;;;;;9.42;93.48535;95956.2;;;;
2022/05/09 02:21:00;;;;;;;11.25;10.35;;;;;;;9.42;93.48535;95956.2;;;;
2022/05/09 02:22:01;;;;;;;11.25;10.35;;;;;;;9.42;93.48535;95956.2;;;;
2022/05/09 02:23:02;;;;;;;11.25;10.35;;;;;;;9.42;93.48535;95956.2;;;;
2022/05/09 02:24:03;;;;;;;11.25;10.35;;;;;;;9.42;93.48535;95956.2;;;;
2022/05/09 02:25:26;;;;;;;11.25;10.35;;;;;;;9.42;93.48535;95956.2;;;;
2022/05/09 02:26:26;;;;;;;10.65;9.749999;;;;;;;9.43;93.54297;95956.05;;;;
2022/05/09 02:27:27;;;;;;;10.65;9.749999;;;;;;;9.43;93.54297;95956.05;;;;
2022/05/09 02:28:28;;;;;;;10.65;9.749999;;;;;;;9.43;93.54297;95956.05;;;;
2022/05/09 02:29:31;;;;;;;10.65;9.749999;;;;;;;9.43;93.54297;95956.05;;;;
2022/05/09 02:30:32;;;;;;;10.65;9.749999;;;;;;;9.43;93.54297;95956.05;;;;
2022/05/09 02:31:34;;;;;;;10.65;9.749999;;;;;;;9.43;93.54297;95956.05;;;;
2022/05/09 02:32:34;;;;;;;10.65;9.749999;;;;;;;9.43;93.54297;95956.05;;;;
2022/05/09 02:33:35;;;;;;;10.65;9.749999;;;;;;;9.43;93.54297;95956.05;;;;
2022/05/09 02:34:36;;;;;;;10.65;9.749999;;;;;;;9.43;93.54297;95956.05;;;;
2022/05/09 02:35:36;;;;;;;10.65;9.749999;;;;;;;9.43;93.54297;95956.05;;;;
2022/05/09 02:36:38;;;;;;;10.65;9.749999;;;;;;;9.43;93.54297;95956.05;;;;
2022/05/09 02:37:39;;;;;;;10.65;9.749999;;;;;;;9.43;93.54297;95956.05;;;;
2022/05/09 02:38:39;;;;;;;10.65;9.749999;;;;;;;9.43;93.54297;95956.05;;;;
2022/05/09 02:39:40;;;;;;;10.65;9.749999;;;;;;;9.43;93.54297;95956.05;;;;
2022/05/09 02:40:40;;;;;;;10.65;9.749999;;;;;;;9.43;93.54297;95956.05;;;;
2022/05/09 02:41:41;;;;;;;10.65;9.749999;;;;;;;9.43;93.54297;95956.05;;;;
2022/05/09 02:42:42;;;;;;;10.65;9.749999;;;;;;;9.43;93.54297;95956.05;;;;
2022/05/09 02:43:43;;;;;;;10.65;9.749999;;;;;;;9.43;93.54297;95956.05;;;;
2022/05/09 02:44:44;;;;;;;10.65;9.749999;;;;;;;9.43;93.54297;95956.05;;;;
2022/05/09 02:45:44;;;;;;;10.65;9.749999;;;;;;;9.43;93.54297;95956.05;;;;
2022/05/09 02:46:45;;;;;;;10.65;9.749999;;;;;;;9.43;93.54297;95956.05;;;;
2022/05/09 02:47:45;;;;;;;10.25;9.45;;;;;;;8.96;92.83301;95953.59;;;;
2022/05/09 02:48:46;;;;;;;10.25;9.45;;;;;;;8.96;92.83301;95953.59;;;;
2022/05/09 02:49:47;;;;;;;10.25;9.45;;;;;;;8.96;92.83301;95953.59;;;;
2022/05/09 02:50:47;;;;;;;10.25;9.45;;;;;;;8.96;92.83301;95953.59;;;;
2022/05/09 02:51:49;;;;;;;10.25;9.45;;;;;;;8.96;92.83301;95953.59;;;;
2022/05/09 02:52:50;;;;;;;10.25;9.45;;;;;;;8.96;92.83301;95953.59;;;;
2022/05/09 02:53:53;;;;;;;10.25;9.45;;;;;;;8.96;92.83301;95953.59;;;;
2022/05/09 02:54:54;;;;;;;10.25;9.45;;;;;;;8.96;92.83301;95953.59;;;;
2022/05/09 02:55:55;;;;;;;10.25;9.45;;;;;;;8.96;92.83301;95953.59;;;;
2022/05/09 02:56:56;;;;;;;10.25;9.45;;;;;;;8.96;92.83301;95953.59;;;;
2022/05/09 02:57:56;;;;;;;11.9;10.9;;;;;;;8.7;93.02441;95955.41;;;;
2022/05/09 02:58:57;;;;;;;11.9;10.9;;;;;;;8.7;93.02441;95955.41;;;;
2022/05/09 02:59:58;;;;;;;11.9;10.9;;;;;;;8.7;93.02441;95955.41;;;;
2022/05/09 03:00:58;;;;;;;11.9;10.9;;;;;;;8.7;93.02441;95955.41;;;;
2022/05/09 03:01:59;;;;;;;11.9;10.9;;;;;;;8.7;93.02441;95955.41;;;;
2022/05/09 03:08:14;;;;;;;11.9;10.9;;;;;;;8.7;93.02441;95955.41;;;;
2022/05/09 03:09:16;;;;;;;11.55;10.55;;;;;;;8.61;93.58984;95955.18;;;;
2022/05/09 03:10:16;;;;;;;11.55;10.55;;;;;;;8.61;93.58984;95955.18;;;;
2022/05/09 03:11:17;;;;;;;11.55;10.55;;;;;;;8.61;93.58984;95955.18;;;;
2022/05/09 03:12:19;;;;;;;11.55;10.55;;;;;;;8.61;93.58984;95955.18;;;;
2022/05/09 03:13:20;;;;;;;11.55;10.55;;;;;;;8.61;93.58984;95955.18;;;;
2022/05/09 03:14:20;;;;;;;11.55;10.55;;;;;;;8.61;93.58984;95955.18;;;;
2022/05/09 03:15:21;;;;;;;11.55;10.55;;;;;;;8.61;93.58984;95955.18;;;;
2022/05/09 03:16:21;;;;;;;11.55;10.55;;;;;;;8.61;93.58984;95955.18;;;;
2022/05/09 03:17:22;;;;;;;11.55;10.55;;;;;;;8.61;93.58984;95955.18;;;;
2022/05/09 03:18:22;;;;;;;11.55;10.55;;;;;;;8.61;93.58984;95955.18;;;;
2022/05/09 03:19:25;;;;;;;11.25;10.25;;;;;;;8.56;93.77148;95954.52;;;;
2022/05/09 03:20:26;;;;;;;11.25;10.25;;;;;;;8.56;93.77148;95954.52;;;;
2022/05/09 03:21:27;;;;;;;11.25;10.25;;;;;;;8.56;93.77148;95954.52;;;;
2022/05/09 03:22:27;;;;;;;11.25;10.25;;;;;;;8.56;93.77148;95954.52;;;;
2022/05/09 03:23:27;;;;;;;11.25;10.25;;;;;;;8.56;93.77148;95954.52;;;;
2022/05/09 03:24:28;;;;;;;11.25;10.25;;;;;;;8.56;93.77148;95954.52;;;;
2022/05/09 03:25:29;;;;;;;11.25;10.25;;;;;;;8.56;93.77148;95954.52;;;;
2022/05/09 03:26:29;;;;;;;11.25;10.25;;;;;;;8.56;93.77148;95954.52;;;;
2022/05/09 03:27:29;;;;;;;11.25;10.25;;;;;;;8.56;93.77148;95954.52;;;;
2022/05/09 03:28:30;;;;;;;11.25;10.25;;;;;;;8.56;93.77148;95954.52;;;;
2022/05/09 03:29:31;;;;;;;11.25;10.25;;;;;;;8.56;93.77148;95954.52;;;;
2022/05/09 03:30:31;;;;;;;11.05;10.1;;;;;;;8.47;93.57031;95956.02;;;;
2022/05/09 03:31:32;;;;;;;11.05;10.1;;;;;;;8.47;93.57031;95956.02;;;;
2022/05/09 03:32:34;;;;;;;11.05;10.1;;;;;;;8.47;93.57031;95956.02;;;;
2022/05/09 03:33:34;;;;;;;11.05;10.1;;;;;;;8.47;93.57031;95956.02;;;;
2022/05/09 03:34:35;;;;;;;11.05;10.1;;;;;;;8.47;93.57031;95956.02;;;;
2022/05/09 03:35:35;;;;;;;11.05;10.1;;;;;;;8.47;93.57031;95956.02;;;;
2022/05/09 03:36:36;;;;;;;11.05;10.1;;;;;;;8.47;93.57031;95956.02;;;;
2022/05/09 03:37:36;;;;;;;11.05;10.1;;;;;;;8.47;93.57031;95956.02;;;;
2022/05/09 03:38:37;;;;;;;11.05;10.1;;;;;;;8.47;93.57031;95956.02;;;;
2022/05/09 03:39:38;;;;;;;11.05;10.1;;;;;;;8.47;93.57031;95956.02;;;;
2022/05/09 03:40:38;;;;;;;10.45;9.550001;;;;;;;8.41;93.58008;95960.29;;;;
2022/05/09 03:41:39;;;;;;;10.45;9.550001;;;;;;;8.41;93.58008;95960.29;;;;
2022/05/09 03:42:40;;;;;;;10.45;9.550001;;;;;;;8.41;93.58008;95960.29;;;;
2022/05/09 03:43:40;;;;;;;10.45;9.550001;;;;;;;8.41;93.58008;95960.29;;;;
2022/05/09 03:44:41;;;;;;;10.45;9.550001;;;;;;;8.41;93.58008;95960.29;;;;
2022/05/09 03:45:41;;;;;;;10.45;9.550001;;;;;;;8.41;93.58008;95960.29;;;;
2022/05/09 03:46:45;;;;;;;10.45;9.550001;;;;;;;8.41;93.58008;95960.29;;;;
2022/05/09 03:47:45;;;;;;;10.45;9.550001;;;;;;;8.41;93.58008;95960.29;;;;
2022/05/09 03:48:46;;;;;;;10.45;9.550001;;;;;;;8.41;93.58008;95960.29;;;;
2022/05/09 03:49:46;;;;;;;10.45;9.550001;;;;;;;8.41;93.58008;95960.29;;;;
2022/05/09 03:50:47;;;;;;;10.45;9.550001;;;;;;;8.41;93.58008;95960.29;;;;
2022/05/09 03:51:47;;;;;;;10.45;9.550001;;;;;;;8.41;93.58008;95960.29;;;;
2022/05/09 03:52:48;;;;;;;10.45;9.550001;;;;;;;8.41;93.58008;95960.29;;;;
2022/05/09 03:53:48;;;;;;;10.45;9.550001;;;;;;;8.41;93.58008;95960.29;;;;
2022/05/09 03:54:49;;;;;;;10.45;9.550001;;;;;;;8.41;93.58008;95960.29;;;;
2022/05/09 03:55:50;;;;;;;10.45;9.550001;;;;;;;8.41;93.58008;95960.29;;;;
2022/05/09 03:56:50;;;;;;;10.45;9.550001;;;;;;;8.41;93.58008;95960.29;;;;
2022/05/09 03:57:51;;;;;;;10.45;9.550001;;;;;;;8.41;93.58008;95960.29;;;;
2022/05/09 03:58:54;;;;;;;10.45;9.550001;;;;;;;8.41;93.58008;95960.29;;;;
2022/05/09 03:59:54;;;;;;;10.45;9.550001;;;;;;;8.41;93.58008;95960.29;;;;
2022/05/09 04:00:55;;;;;;;10.45;9.550001;;;;;;;8.41;93.58008;95960.29;;;;
2022/05/09 04:01:56;;;;;;;10.5;9.5;;;;;;;8.21;93.35645;95963.02;;;;
2022/05/09 04:02:56;;;;;;;10.5;9.5;;;;;;;8.21;93.35645;95963.02;;;;
2022/05/09 04:03:57;;;;;;;10.5;9.5;;;;;;;8.21;93.35645;95963.02;;;;
2022/05/09 04:04:57;;;;;;;10.5;9.5;;;;;;;8.21;93.35645;95963.02;;;;
2022/05/09 04:05:58;;;;;;;10.5;9.5;;;;;;;8.21;93.35645;95963.02;;;;
2022/05/09 04:06:58;;;;;;;10.5;9.5;;;;;;;8.21;93.35645;95963.02;;;;
2022/05/09 04:07:59;;;;;;;10.5;9.5;;;;;;;8.21;93.35645;95963.02;;;;
2022/05/09 04:09:01;;;;;;;10.5;9.5;;;;;;;8.21;93.35645;95963.02;;;;
2022/05/09 04:10:02;;;;;;;10.5;9.5;;;;;;;8.21;93.35645;95963.02;;;;
2022/05/09 04:11:03;;;;;;;10.5;9.5;;;;;;;8.21;93.35645;95963.02;;;;
2022/05/09 04:12:04;;;;;;;10.5;9.5;;;;;;;8.21;93.35645;95963.02;;;;
2022/05/09 04:13:05;;;;;;;12.45;11.4;;;;;;;8.2;93.50391;95973.22;;;;
2022/05/09 04:14:06;;;;;;;12.45;11.4;;;;;;;8.2;93.50391;95973.22;;;;
2022/05/09 04:20:17;;;;;;;12.45;11.4;;;;;;;8.2;93.50391;95973.22;;;;
2022/05/09 04:21:18;;;;;;;12.45;11.4;;;;;;;8.2;93.50391;95973.22;;;;
2022/05/09 04:22:19;;;;;;;12.45;11.4;;;;;;;8.2;93.50391;95973.22;;;;
2022/05/09 04:23:20;;;;;;;12.85;11.75;;;;;;;8.23;93.72266;95974.72;;;;
2022/05/09 04:24:21;;;;;;;12.85;11.75;;;;;;;8.23;93.72266;95974.72;;;;
2022/05/09 04:25:22;;;;;;;12.85;11.75;;;;;;;8.23;93.72266;95974.72;;;;
2022/05/09 04:26:23;;;;;;;12.85;11.75;;;;;;;8.23;93.72266;95974.72;;;;
2022/05/09 04:27:24;;;;;;;12.85;11.75;;;;;;;8.23;93.72266;95974.72;;;;
2022/05/09 04:28:25;;;;;;;12.85;11.75;;;;;;;8.23;93.72266;95974.72;;;;
2022/05/09 04:29:26;;;;;;;12.85;11.75;;;;;;;8.23;93.72266;95974.72;;;;
2022/05/09 04:30:27;;;;;;;12.85;11.75;;;;;;;8.23;93.72266;95974.72;;;;
2022/05/09 04:31:28;;;;;;;12.85;11.75;;;;;;;8.23;93.72266;95974.72;;;;
2022/05/09 04:32:29;;;;;;;12.85;11.75;;;;;;;8.23;93.72266;95974.72;;;;
2022/05/09 04:33:30;;;;;;;12.85;11.75;;;;;;;8.23;93.72266;95974.72;;;;
2022/05/09 04:34:30;;;;;;;13.15;12;;;;;;;8.35;94.02344;95988.68;;;;
2022/05/09 04:35:31;;;;;;;13.15;12;;;;;;;8.35;94.02344;95988.68;;;;
2022/05/09 04:36:32;;;;;;;13.15;12;;;;;;;8.35;94.02344;95988.68;;;;
2022/05/09 04:37:33;;;;;;;13.15;12;;;;;;;8.35;94.02344;95988.68;;;;
2022/05/09 04:38:35;;;;;;;13.15;12;;;;;;;8.35;94.02344;95988.68;;;;
2022/05/09 04:39:36;;;;;;;13.15;12;;;;;;;8.35;94.02344;95988.68;;;;
2022/05/09 04:40:37;;;;;;;13.15;12;;;;;;;8.35;94.02344;95988.68;;;;
2022/05/09 04:41:38;;;;;;;13.15;12;;;;;;;8.35;94.02344;95988.68;;;;
2022/05/09 04:42:38;;;;;;;13.15;12;;;;;;;8.35;94.02344;95988.68;;;;
2022/05/09 04:43:39;;;;;;;13.15;12;;;;;;;8.35;94.02344;95988.68;;;;
2022/05/09 04:44:40;;;;;;;13.15;12;;;;;;;8.47;94.08105;95992.07;;;;
2022/05/09 04:45:41;;;;;;;13.15;12;;;;;;;8.47;94.08105;95992.07;;;;
2022/05/09 04:46:42;;;;;;;13.15;12;;;;;;;8.47;94.08105;95992.07;;;;
2022/05/09 04:47:43;;;;;;;13.15;12;;;;;;;8.47;94.08105;95992.07;;;;
2022/05/09 04:48:46;;;;;;;13.15;12;;;;;;;8.47;94.08105;95992.07;;;;
2022/05/09 04:49:46;;;;;;;13.15;12;;;;;;;8.47;94.08105;95992.07;;;;
2022/05/09 04:50:47;;;;;;;13.15;12;;;;;;;8.47;94.08105;95992.07;;;;
2022/05/09 04:51:48;;;;;;;13.15;12;;;;;;;8.47;94.08105;95992.07;;;;
2022/05/09 04:52:48;;;;;;;13.15;12;;;;;;;8.47;94.08105;95992.07;;;;
2022/05/09 04:53:49;;;;;;;13.15;12;;;;;;;8.47;94.08105;95992.07;;;;
2022/05/09 04:54:50;;;;;;;13.15;12;;;;;;;8.47;94.08105;95992.07;;;;
2022/05/09 04:55:50;;;;;;;12.65;11.65;;;;;;;8.66;94.19629;95999.84;;;;
2022/05/09 04:56:51;;;;;;;12.65;11.65;;;;;;;8.66;94.19629;95999.84;;;;
2022/05/09 04:57:52;;;;;;;12.65;11.65;;;;;;;8.66;94.19629;95999.84;;;;
2022/05/09 04:58:52;;;;;;;12.65;11.65;;;;;;;8.66;94.19629;95999.84;;;;
2022/05/09 04:59:53;;;;;;;12.65;11.65;;;;;;;8.66;94.19629;95999.84;;;;
2022/05/09 05:00:53;;;;;;;12.65;11.65;;;;;;;8.66;94.19629;95999.84;;;;
2022/05/09 05:01:54;;;;;;;12.65;11.65;;;;;;;8.66;94.19629;95999.84;;;;
2022/05/09 05:02:55;;;;;;;12.65;11.65;;;;;;;8.66;94.19629;95999.84;;;;
2022/05/09 05:03:55;;;;;;;12.65;11.65;;;;;;;8.66;94.19629;95999.84;;;;
2022/05/09 05:04:56;;;;;;;12.65;11.65;;;;;;;8.66;94.19629;95999.84;;;;
2022/05/09 05:05:56;;;;;;;12.65;11.65;;;;;;;8.66;94.19629;95999.84;;;;
2022/05/09 05:06:57;;;;;;;12;10.9;;;;;;;9.02;94.40332;95995.03;;;;
2022/05/09 05:07:58;;;;;;;12;10.9;;;;;;;9.02;94.40332;95995.03;;;;
2022/05/09 05:08:59;;;;;;;12;10.9;;;;;;;9.02;94.40332;95995.03;;;;
2022/05/09 05:09:59;;;;;;;12;10.9;;;;;;;9.02;94.40332;95995.03;;;;
2022/05/09 05:11:00;;;;;;;12;10.9;;;;;;;9.02;94.40332;95995.03;;;;
2022/05/09 05:12:01;;;;;;;12;10.9;;;;;;;9.02;94.40332;95995.03;;;;
2022/05/09 05:13:03;;;;;;;12;10.9;;;;;;;9.02;94.40332;95995.03;;;;
2022/05/09 05:14:04;;;;;;;12;10.9;;;;;;;9.02;94.40332;95995.03;;;;
2022/05/09 05:15:04;;;;;;;12;10.9;;;;;;;9.02;94.40332;95995.03;;;;
2022/05/09 05:16:06;;;;;;;12;10.9;;;;;;;9.02;94.40332;95995.03;;;;
2022/05/09 05:17:07;;;;;;;11.75;10.85;;;;;;;9.5;94.30371;96005.84;;;;
2022/05/09 05:18:07;;;;;;;11.75;10.85;;;;;;;9.5;94.30371;96005.84;;;;
2022/05/09 05:19:08;;;;;;;11.75;10.85;;;;;;;9.5;94.30371;96005.84;;;;
2022/05/09 05:20:09;;;;;;;11.75;10.85;;;;;;;9.5;94.30371;96005.84;;;;
2022/05/09 05:21:14;;;;;;;11.75;10.85;;;;;;;9.5;94.30371;96005.84;;;;
2022/05/09 05:22:15;;;;;;;11.75;10.85;;;;;;;9.5;94.30371;96005.84;;;;
2022/05/09 05:23:16;;;;;;;11.75;10.85;;;;;;;9.5;94.30371;96005.84;;;;
2022/05/09 05:24:17;;;;;;;11.75;10.85;;;;;;;9.5;94.30371;96005.84;;;;
2022/05/09 05:25:18;;;;;;;11.75;10.85;;;;;;;9.5;94.30371;96005.84;;;;
2022/05/09 05:26:21;;;;;;;11.75;10.85;;;;;;;9.5;94.30371;96005.84;;;;
2022/05/09 05:27:22;;;;;;;12.2;11.3;;;;;;;10.39;94.45313;95999.03;;;;
2022/05/09 05:28:22;;;;;;;12.2;11.3;;;;;;;10.39;94.45313;95999.03;;;;
2022/05/09 05:29:23;;;;;;;12.2;11.3;;;;;;;10.39;94.45313;95999.03;;;;
2022/05/09 05:30:24;;;;;;;12.2;11.3;;;;;;;10.39;94.45313;95999.03;;;;
2022/05/09 05:31:24;;;;;;;12.2;11.3;;;;;;;10.39;94.45313;95999.03;;;;
2022/05/09 05:32:25;;;;;;;12.2;11.3;;;;;;;10.39;94.45313;95999.03;;;;
2022/05/09 05:33:28;;;;;;;12.2;11.3;;;;;;;10.39;94.45313;95999.03;;;;
2022/05/09 05:34:29;;;;;;;12.2;11.3;;;;;;;10.39;94.45313;95999.03;;;;
2022/05/09 05:35:29;;;;;;;12.2;11.3;;;;;;;10.39;94.45313;95999.03;;;;
2022/05/09 05:36:31;;;;;;;12.2;11.3;;;;;;;10.39;94.45313;95999.03;;;;
2022/05/09 05:37:32;;;;;;;12.2;11.3;;;;;;;10.39;94.45313;95999.03;;;;
2022/05/09 05:38:33;;;;;;;10.25;9.550001;;;;;;;11.27;94.18262;96002.95;;;;
2022/05/09 05:39:36;;;;;;;10.25;9.550001;;;;;;;11.27;94.18262;96002.95;;;;
2022/05/09 05:40:37;;;;;;;10.25;9.550001;;;;;;;11.27;94.18262;96002.95;;;;
2022/05/09 05:41:38;;;;;;;10.25;9.550001;;;;;;;11.27;94.18262;96002.95;;;;
2022/05/09 05:42:38;;;;;;;10.25;9.550001;;;;;;;11.27;94.18262;96002.95;;;;
2022/05/09 05:43:41;;;;;;;10.25;9.550001;;;;;;;11.27;94.18262;96002.95;;;;
2022/05/09 05:44:41;;;;;;;10.25;9.550001;;;;;;;11.27;94.18262;96002.95;;;;
2022/05/09 05:45:46;;;;;;;10.25;9.550001;;;;;;;11.27;94.18262;96002.95;;;;
2022/05/09 05:46:46;;;;;;;10.25;9.550001;;;;;;;11.27;94.18262;96002.95;;;;
2022/05/09 05:47:47;;;;;;;10.25;9.550001;;;;;;;11.27;94.18262;96002.95;;;;
2022/05/09 05:48:48;;;;;;;14.1;12.55;;;;;;;12.08;93.61523;95999.8;;;;
2022/05/09 05:49:49;;;;;;;14.1;12.55;;;;;;;12.08;93.61523;95999.8;;;;
2022/05/09 05:50:50;;;;;;;14.1;12.55;;;;;;;12.08;93.61523;95999.8;;;;
2022/05/09 05:51:50;;;;;;;14.1;12.55;;;;;;;12.08;93.61523;95999.8;;;;
2022/05/09 05:52:51;;;;;;;14.1;12.55;;;;;;;12.08;93.61523;95999.8;;;;
2022/05/09 05:53:53;;;;;;;14.1;12.55;;;;;;;12.08;93.61523;95999.8;;;;
2022/05/09 05:54:53;;;;;;;14.1;12.55;;;;;;;12.08;93.61523;95999.8;;;;
2022/05/09 05:55:54;;;;;;;14.1;12.55;;;;;;;12.08;93.61523;95999.8;;;;
2022/05/09 05:56:54;;;;;;;14.1;12.55;;;;;;;12.08;93.61523;95999.8;;;;
2022/05/09 05:57:55;;;;;;;14.1;12.55;;;;;;;12.08;93.61523;95999.8;;;;